Terminal Aerodrome Forecast
Issued by NWS

Home | Current Version | Previous Version | Text Only | Print | Product List | Glossary On
Versions: 1 2 3 4 5 6 7 8 9 10 11 12 13 14 15 16 17 18 19 20 21 22 23 24
000
FTPA31 PHFO 292300
TAFJRF
TAF
PHJR 292330Z 3000/3024 16010KT P6SM FEW030 SCT050
     FM300100 22008KT P6SM SCT025 BKN045
     FM300500 VRB03KT P6SM FEW025 BKN045
     FM301000 06003KT P6SM SKC
     FM302000 17007KT P6SM FEW030=

USA.gov is the U.S. government's official web portal to all federal, state and local government web resources and services.